sensor_id;sensor_type;location;lat;lon;timestamp;P1;durP1;ratioP1;P2;durP2;ratioP2
44456;SDS011;30159;49.316;8.558;2023-07-29T00:01:30;3.87;;;3.57;;
44456;SDS011;30159;49.316;8.558;2023-07-29T00:03:56;3.23;;;3.03;;
44456;SDS011;30159;49.316;8.558;2023-07-29T00:06:23;8.33;;;3.70;;
44456;SDS011;30159;49.316;8.558;2023-07-29T00:08:50;3.20;;;3.00;;
44456;SDS011;30159;49.316;8.558;2023-07-29T00:11:16;6.50;;;3.20;;
44456;SDS011;30159;49.316;8.558;2023-07-29T00:13:44;2.57;;;2.37;;
44456;SDS011;30159;49.316;8.558;2023-07-29T00:16:12;3.33;;;3.13;;
44456;SDS011;30159;49.316;8.558;2023-07-29T00:18:40;5.30;;;2.60;;
44456;SDS011;30159;49.316;8.558;2023-07-29T00:21:07;2.90;;;2.50;;
44456;SDS011;30159;49.316;8.558;2023-07-29T00:23:33;10.77;;;2.90;;
44456;SDS011;30159;49.316;8.558;2023-07-29T00:26:00;3.13;;;2.57;;
44456;SDS011;30159;49.316;8.558;2023-07-29T00:28:26;4.43;;;2.60;;
44456;SDS011;30159;49.316;8.558;2023-07-29T00:30:54;2.67;;;2.47;;
44456;SDS011;30159;49.316;8.558;2023-07-29T00:33:21;2.80;;;2.20;;
44456;SDS011;30159;49.316;8.558;2023-07-29T00:35:48;2.50;;;2.30;;
44456;SDS011;30159;49.316;8.558;2023-07-29T00:38:14;2.33;;;2.10;;
44456;SDS011;30159;49.316;8.558;2023-07-29T00:40:41;6.90;;;2.10;;
44456;SDS011;30159;49.316;8.558;2023-07-29T00:43:07;2.13;;;2.03;;
44456;SDS011;30159;49.316;8.558;2023-07-29T00:45:34;2.60;;;2.40;;
44456;SDS011;30159;49.316;8.558;2023-07-29T00:48:02;2.30;;;2.07;;
44456;SDS011;30159;49.316;8.558;2023-07-29T00:50:30;3.77;;;2.03;;
44456;SDS011;30159;49.316;8.558;2023-07-29T00:52:58;3.20;;;1.70;;
44456;SDS011;30159;49.316;8.558;2023-07-29T00:55:24;2.40;;;2.03;;
44456;SDS011;30159;49.316;8.558;2023-07-29T00:57:53;2.00;;;1.80;;
44456;SDS011;30159;49.316;8.558;2023-07-29T01:00:20;3.50;;;1.90;;
44456;SDS011;30159;49.316;8.558;2023-07-29T01:02:47;2.90;;;1.80;;
44456;SDS011;30159;49.316;8.558;2023-07-29T01:05:16;5.00;;;1.60;;
44456;SDS011;30159;49.316;8.558;2023-07-29T01:07:44;1.77;;;1.67;;
44456;SDS011;30159;49.316;8.558;2023-07-29T01:10:18;4.30;;;1.53;;
44456;SDS011;30159;49.316;8.558;2023-07-29T01:12:54;1.50;;;1.40;;
44456;SDS011;30159;49.316;8.558;2023-07-29T01:15:26;2.57;;;1.70;;
44456;SDS011;30159;49.316;8.558;2023-07-29T01:17:59;2.10;;;1.50;;
44456;SDS011;30159;49.316;8.558;2023-07-29T01:20:32;3.43;;;1.80;;
44456;SDS011;30159;49.316;8.558;2023-07-29T01:23:00;1.93;;;1.50;;
44456;SDS011;30159;49.316;8.558;2023-07-29T01:25:28;2.77;;;1.57;;
44456;SDS011;30159;49.316;8.558;2023-07-29T01:27:54;1.90;;;1.50;;
44456;SDS011;30159;49.316;8.558;2023-07-29T01:30:22;1.63;;;1.53;;
44456;SDS011;30159;49.316;8.558;2023-07-29T01:32:56;1.83;;;1.53;;
44456;SDS011;30159;49.316;8.558;2023-07-29T01:35:31;2.30;;;1.80;;
44456;SDS011;30159;49.316;8.558;2023-07-29T01:38:01;7.40;;;1.50;;
44456;SDS011;30159;49.316;8.558;2023-07-29T01:40:33;1.40;;;1.30;;
44456;SDS011;30159;49.316;8.558;2023-07-29T01:43:00;15.53;;;1.47;;
44456;SDS011;30159;49.316;8.558;2023-07-29T01:45:27;1.83;;;1.70;;
44456;SDS011;30159;49.316;8.558;2023-07-29T01:47:56;1.40;;;1.30;;
44456;SDS011;30159;49.316;8.558;2023-07-29T01:50:23;1.27;;;1.17;;
44456;SDS011;30159;49.316;8.558;2023-07-29T01:52:50;1.40;;;1.30;;
44456;SDS011;30159;49.316;8.558;2023-07-29T01:55:16;1.50;;;1.40;;
44456;SDS011;30159;49.316;8.558;2023-07-29T01:57:44;1.40;;;1.30;;
44456;SDS011;30159;49.316;8.558;2023-07-29T02:00:11;7.23;;;1.50;;
44456;SDS011;30159;49.316;8.558;2023-07-29T02:02:38;6.70;;;1.80;;
44456;SDS011;30159;49.316;8.558;2023-07-29T02:05:05;2.50;;;1.47;;
44456;SDS011;30159;49.316;8.558;2023-07-29T02:07:31;1.37;;;1.20;;
44456;SDS011;30159;49.316;8.558;2023-07-29T02:09:58;1.30;;;1.20;;
44456;SDS011;30159;49.316;8.558;2023-07-29T02:12:25;1.20;;;1.10;;
44456;SDS011;30159;49.316;8.558;2023-07-29T02:14:53;4.33;;;1.50;;
44456;SDS011;30159;49.316;8.558;2023-07-29T02:17:19;1.50;;;1.40;;
44456;SDS011;30159;49.316;8.558;2023-07-29T02:19:46;3.10;;;1.50;;
44456;SDS011;30159;49.316;8.558;2023-07-29T02:22:13;1.73;;;1.63;;
44456;SDS011;30159;49.316;8.558;2023-07-29T02:24:42;1.60;;;1.50;;
44456;SDS011;30159;49.316;8.558;2023-07-29T02:27:09;1.90;;;1.60;;
44456;SDS011;30159;49.316;8.558;2023-07-29T02:29:36;1.43;;;1.33;;
44456;SDS011;30159;49.316;8.558;2023-07-29T02:32:04;1.67;;;1.57;;
44456;SDS011;30159;49.316;8.558;2023-07-29T02:34:31;1.97;;;1.60;;
44456;SDS011;30159;49.316;8.558;2023-07-29T02:36:58;2.20;;;1.60;;
44456;SDS011;30159;49.316;8.558;2023-07-29T02:39:24;1.97;;;1.77;;
44456;SDS011;30159;49.316;8.558;2023-07-29T02:41:51;1.57;;;1.47;;
44456;SDS011;30159;49.316;8.558;2023-07-29T02:44:17;1.97;;;1.60;;
44456;SDS011;30159;49.316;8.558;2023-07-29T02:46:44;1.60;;;1.50;;
44456;SDS011;30159;49.316;8.558;2023-07-29T02:49:12;3.00;;;1.40;;
44456;SDS011;30159;49.316;8.558;2023-07-29T02:51:39;1.83;;;1.50;;
44456;SDS011;30159;49.316;8.558;2023-07-29T02:54:05;2.23;;;1.10;;
44456;SDS011;30159;49.316;8.558;2023-07-29T02:56:32;1.67;;;1.57;;
44456;SDS011;30159;49.316;8.558;2023-07-29T02:58:59;1.70;;;1.30;;
44456;SDS011;30159;49.316;8.558;2023-07-29T03:01:26;5.13;;;1.83;;
44456;SDS011;30159;49.316;8.558;2023-07-29T03:03:53;2.30;;;1.20;;
44456;SDS011;30159;49.316;8.558;2023-07-29T03:06:21;1.40;;;1.30;;
44456;SDS011;30159;49.316;8.558;2023-07-29T03:08:47;1.40;;;1.30;;
44456;SDS011;30159;49.316;8.558;2023-07-29T03:11:14;1.30;;;1.20;;
44456;SDS011;30159;49.316;8.558;2023-07-29T03:13:42;1.60;;;1.50;;
44456;SDS011;30159;49.316;8.558;2023-07-29T03:16:09;4.30;;;1.60;;
44456;SDS011;30159;49.316;8.558;2023-07-29T03:18:37;2.43;;;1.50;;
44456;SDS011;30159;49.316;8.558;2023-07-29T03:21:05;3.87;;;1.50;;
44456;SDS011;30159;49.316;8.558;2023-07-29T03:23:34;1.47;;;1.37;;
44456;SDS011;30159;49.316;8.558;2023-07-29T03:26:01;1.60;;;1.50;;
44456;SDS011;30159;49.316;8.558;2023-07-29T03:28:35;2.60;;;1.90;;
44456;SDS011;30159;49.316;8.558;2023-07-29T03:31:02;3.53;;;1.37;;
44456;SDS011;30159;49.316;8.558;2023-07-29T03:33:29;3.20;;;1.50;;
44456;SDS011;30159;49.316;8.558;2023-07-29T03:35:55;1.70;;;1.40;;
44456;SDS011;30159;49.316;8.558;2023-07-29T03:38:22;3.73;;;1.40;;
44456;SDS011;30159;49.316;8.558;2023-07-29T03:40:50;1.40;;;1.30;;
44456;SDS011;30159;49.316;8.558;2023-07-29T03:43:18;2.07;;;1.53;;
44456;SDS011;30159;49.316;8.558;2023-07-29T03:45:45;2.50;;;1.33;;
44456;SDS011;30159;49.316;8.558;2023-07-29T03:48:12;1.40;;;1.30;;
44456;SDS011;30159;49.316;8.558;2023-07-29T03:50:38;1.20;;;1.10;;
44456;SDS011;30159;49.316;8.558;2023-07-29T03:53:05;1.43;;;1.33;;
44456;SDS011;30159;49.316;8.558;2023-07-29T03:55:32;1.30;;;1.20;;
44456;SDS011;30159;49.316;8.558;2023-07-29T03:58:00;1.20;;;1.10;;
44456;SDS011;30159;49.316;8.558;2023-07-29T04:00:26;1.50;;;1.40;;
44456;SDS011;30159;49.316;8.558;2023-07-29T04:02:53;1.30;;;1.20;;
44456;SDS011;30159;49.316;8.558;2023-07-29T04:05:20;1.40;;;1.30;;
44456;SDS011;30159;49.316;8.558;2023-07-29T04:07:46;1.43;;;1.33;;
44456;SDS011;30159;49.316;8.558;2023-07-29T04:10:13;2.10;;;1.30;;
44456;SDS011;30159;49.316;8.558;2023-07-29T04:12:40;1.87;;;1.30;;
44456;SDS011;30159;49.316;8.558;2023-07-29T04:15:08;1.50;;;1.40;;
44456;SDS011;30159;49.316;8.558;2023-07-29T04:17:35;1.40;;;1.30;;
44456;SDS011;30159;49.316;8.558;2023-07-29T04:20:02;2.60;;;1.37;;
44456;SDS011;30159;49.316;8.558;2023-07-29T04:22:28;1.40;;;1.30;;
44456;SDS011;30159;49.316;8.558;2023-07-29T04:24:55;1.57;;;1.20;;
44456;SDS011;30159;49.316;8.558;2023-07-29T04:27:21;1.20;;;1.10;;
44456;SDS011;30159;49.316;8.558;2023-07-29T04:29:48;1.20;;;1.10;;
44456;SDS011;30159;49.316;8.558;2023-07-29T04:32:16;1.37;;;1.27;;
44456;SDS011;30159;49.316;8.558;2023-07-29T04:34:42;1.87;;;1.20;;
44456;SDS011;30159;49.316;8.558;2023-07-29T04:37:09;1.10;;;1.00;;
44456;SDS011;30159;49.316;8.558;2023-07-29T04:39:36;1.00;;;0.90;;
44456;SDS011;30159;49.316;8.558;2023-07-29T04:42:02;2.60;;;1.20;;
44456;SDS011;30159;49.316;8.558;2023-07-29T04:44:29;1.33;;;1.23;;
44456;SDS011;30159;49.316;8.558;2023-07-29T04:46:56;2.40;;;1.37;;
44456;SDS011;30159;49.316;8.558;2023-07-29T04:49:24;3.40;;;1.47;;
44456;SDS011;30159;49.316;8.558;2023-07-29T04:51:51;4.37;;;1.70;;
44456;SDS011;30159;49.316;8.558;2023-07-29T04:54:17;2.50;;;1.60;;
44456;SDS011;30159;49.316;8.558;2023-07-29T04:56:45;2.07;;;1.43;;
44456;SDS011;30159;49.316;8.558;2023-07-29T04:59:12;1.80;;;1.70;;
44456;SDS011;30159;49.316;8.558;2023-07-29T05:01:39;2.00;;;1.40;;
44456;SDS011;30159;49.316;8.558;2023-07-29T05:04:07;1.40;;;1.30;;
44456;SDS011;30159;49.316;8.558;2023-07-29T05:06:35;1.63;;;1.30;;
44456;SDS011;30159;49.316;8.558;2023-07-29T05:09:12;1.40;;;1.30;;
44456;SDS011;30159;49.316;8.558;2023-07-29T05:11:39;1.47;;;1.37;;
44456;SDS011;30159;49.316;8.558;2023-07-29T05:14:06;1.33;;;1.23;;
44456;SDS011;30159;49.316;8.558;2023-07-29T05:16:34;1.80;;;1.70;;
44456;SDS011;30159;49.316;8.558;2023-07-29T05:19:00;1.90;;;1.80;;
44456;SDS011;30159;49.316;8.558;2023-07-29T05:21:27;3.17;;;1.33;;
44456;SDS011;30159;49.316;8.558;2023-07-29T05:23:55;1.70;;;1.60;;
44456;SDS011;30159;49.316;8.558;2023-07-29T05:26:21;1.77;;;1.50;;
44456;SDS011;30159;49.316;8.558;2023-07-29T05:28:48;1.80;;;1.70;;
44456;SDS011;30159;49.316;8.558;2023-07-29T05:31:15;1.93;;;1.83;;
44456;SDS011;30159;49.316;8.558;2023-07-29T05:33:41;1.60;;;1.50;;
44456;SDS011;30159;49.316;8.558;2023-07-29T05:36:08;1.90;;;1.50;;
44456;SDS011;30159;49.316;8.558;2023-07-29T05:38:35;5.13;;;2.00;;
44456;SDS011;30159;49.316;8.558;2023-07-29T05:41:03;1.70;;;1.60;;
44456;SDS011;30159;49.316;8.558;2023-07-29T05:43:29;1.97;;;1.80;;
44456;SDS011;30159;49.316;8.558;2023-07-29T05:45:56;1.73;;;1.63;;
44456;SDS011;30159;49.316;8.558;2023-07-29T05:48:22;2.20;;;1.67;;
44456;SDS011;30159;49.316;8.558;2023-07-29T05:50:49;2.87;;;1.90;;
44456;SDS011;30159;49.316;8.558;2023-07-29T05:53:16;1.77;;;1.67;;
44456;SDS011;30159;49.316;8.558;2023-07-29T05:55:42;2.23;;;2.13;;
44456;SDS011;30159;49.316;8.558;2023-07-29T05:58:10;2.23;;;1.80;;
44456;SDS011;30159;49.316;8.558;2023-07-29T06:00:37;2.03;;;1.93;;
44456;SDS011;30159;49.316;8.558;2023-07-29T06:03:03;2.00;;;1.53;;
44456;SDS011;30159;49.316;8.558;2023-07-29T06:05:30;1.50;;;1.40;;
44456;SDS011;30159;49.316;8.558;2023-07-29T06:07:56;1.83;;;1.73;;
44456;SDS011;30159;49.316;8.558;2023-07-29T06:10:23;2.27;;;2.17;;
44456;SDS011;30159;49.316;8.558;2023-07-29T06:12:50;1.80;;;1.70;;
44456;SDS011;30159;49.316;8.558;2023-07-29T06:15:18;2.27;;;2.17;;
44456;SDS011;30159;49.316;8.558;2023-07-29T06:17:46;1.60;;;1.50;;
44456;SDS011;30159;49.316;8.558;2023-07-29T06:20:13;1.93;;;1.83;;
44456;SDS011;30159;49.316;8.558;2023-07-29T06:22:40;2.83;;;1.70;;
44456;SDS011;30159;49.316;8.558;2023-07-29T06:25:07;1.57;;;1.43;;
44456;SDS011;30159;49.316;8.558;2023-07-29T06:27:34;2.70;;;2.60;;
44456;SDS011;30159;49.316;8.558;2023-07-29T06:30:01;2.20;;;2.00;;
44456;SDS011;30159;49.316;8.558;2023-07-29T06:32:29;1.70;;;1.60;;
44456;SDS011;30159;49.316;8.558;2023-07-29T06:34:55;4.60;;;1.50;;
44456;SDS011;30159;49.316;8.558;2023-07-29T06:37:22;1.63;;;1.50;;
44456;SDS011;30159;49.316;8.558;2023-07-29T06:39:48;4.63;;;1.90;;
44456;SDS011;30159;49.316;8.558;2023-07-29T06:42:15;2.10;;;2.00;;
44456;SDS011;30159;49.316;8.558;2023-07-29T06:44:41;1.70;;;1.60;;
44456;SDS011;30159;49.316;8.558;2023-07-29T06:47:10;1.77;;;1.60;;
44456;SDS011;30159;49.316;8.558;2023-07-29T06:49:38;2.27;;;1.50;;
44456;SDS011;30159;49.316;8.558;2023-07-29T06:52:05;1.70;;;1.60;;
44456;SDS011;30159;49.316;8.558;2023-07-29T06:54:32;2.10;;;2.00;;
44456;SDS011;30159;49.316;8.558;2023-07-29T06:56:58;1.97;;;1.80;;
44456;SDS011;30159;49.316;8.558;2023-07-29T06:59:25;2.40;;;1.67;;
44456;SDS011;30159;49.316;8.558;2023-07-29T07:01:52;1.80;;;1.53;;
44456;SDS011;30159;49.316;8.558;2023-07-29T07:04:18;1.80;;;1.70;;
44456;SDS011;30159;49.316;8.558;2023-07-29T07:06:46;1.93;;;1.70;;
44456;SDS011;30159;49.316;8.558;2023-07-29T07:09:13;2.00;;;1.70;;
44456;SDS011;30159;49.316;8.558;2023-07-29T07:11:39;2.73;;;1.60;;
44456;SDS011;30159;49.316;8.558;2023-07-29T07:14:06;1.80;;;1.70;;
44456;SDS011;30159;49.316;8.558;2023-07-29T07:16:32;2.00;;;1.90;;
44456;SDS011;30159;49.316;8.558;2023-07-29T07:19:01;4.73;;;1.60;;
44456;SDS011;30159;49.316;8.558;2023-07-29T07:21:28;1.90;;;1.80;;
44456;SDS011;30159;49.316;8.558;2023-07-29T07:23:56;1.80;;;1.70;;
44456;SDS011;30159;49.316;8.558;2023-07-29T07:26:25;1.70;;;1.60;;
44456;SDS011;30159;49.316;8.558;2023-07-29T07:28:51;1.50;;;1.40;;
44456;SDS011;30159;49.316;8.558;2023-07-29T07:31:18;1.63;;;1.53;;
44456;SDS011;30159;49.316;8.558;2023-07-29T07:33:44;2.47;;;1.40;;
44456;SDS011;30159;49.316;8.558;2023-07-29T07:36:11;1.50;;;1.23;;
44456;SDS011;30159;49.316;8.558;2023-07-29T07:38:37;1.50;;;1.40;;
44456;SDS011;30159;49.316;8.558;2023-07-29T07:41:05;1.40;;;1.30;;
44456;SDS011;30159;49.316;8.558;2023-07-29T07:43:32;2.17;;;1.47;;
44456;SDS011;30159;49.316;8.558;2023-07-29T07:45:59;1.40;;;1.30;;
44456;SDS011;30159;49.316;8.558;2023-07-29T07:48:26;2.43;;;1.43;;
44456;SDS011;30159;49.316;8.558;2023-07-29T07:50:53;1.50;;;1.40;;
44456;SDS011;30159;49.316;8.558;2023-07-29T07:53:19;3.20;;;1.60;;
44456;SDS011;30159;49.316;8.558;2023-07-29T07:55:46;1.87;;;1.40;;
44456;SDS011;30159;49.316;8.558;2023-07-29T07:58:14;1.90;;;1.80;;
44456;SDS011;30159;49.316;8.558;2023-07-29T08:00:41;3.10;;;1.50;;
44456;SDS011;30159;49.316;8.558;2023-07-29T08:03:08;2.53;;;1.37;;
44456;SDS011;30159;49.316;8.558;2023-07-29T08:05:34;1.87;;;1.10;;
44456;SDS011;30159;49.316;8.558;2023-07-29T08:08:01;1.50;;;1.40;;
44456;SDS011;30159;49.316;8.558;2023-07-29T08:10:27;1.40;;;1.30;;
44456;SDS011;30159;49.316;8.558;2023-07-29T08:12:54;1.67;;;1.57;;
44456;SDS011;30159;49.316;8.558;2023-07-29T08:15:22;1.30;;;1.20;;
44456;SDS011;30159;49.316;8.558;2023-07-29T08:17:48;1.27;;;1.17;;
44456;SDS011;30159;49.316;8.558;2023-07-29T08:20:15;1.40;;;1.30;;
44456;SDS011;30159;49.316;8.558;2023-07-29T08:22:42;1.50;;;1.40;;
44456;SDS011;30159;49.316;8.558;2023-07-29T08:25:08;1.30;;;1.20;;
44456;SDS011;30159;49.316;8.558;2023-07-29T08:27:35;2.43;;;1.73;;
44456;SDS011;30159;49.316;8.558;2023-07-29T08:30:02;1.73;;;1.20;;
44456;SDS011;30159;49.316;8.558;2023-07-29T08:32:30;1.40;;;1.20;;
44456;SDS011;30159;49.316;8.558;2023-07-29T08:34:56;1.50;;;1.20;;
44456;SDS011;30159;49.316;8.558;2023-07-29T08:37:23;1.87;;;1.00;;
44456;SDS011;30159;49.316;8.558;2023-07-29T08:39:49;2.00;;;1.60;;
44456;SDS011;30159;49.316;8.558;2023-07-29T08:42:19;1.30;;;1.20;;
44456;SDS011;30159;49.316;8.558;2023-07-29T08:44:47;1.50;;;1.10;;
44456;SDS011;30159;49.316;8.558;2023-07-29T08:47:16;1.93;;;1.20;;
44456;SDS011;30159;49.316;8.558;2023-07-29T08:49:44;1.80;;;1.20;;
44456;SDS011;30159;49.316;8.558;2023-07-29T08:52:12;1.37;;;1.27;;
44456;SDS011;30159;49.316;8.558;2023-07-29T08:54:40;1.20;;;1.10;;
44456;SDS011;30159;49.316;8.558;2023-07-29T08:57:07;1.17;;;1.07;;
44456;SDS011;30159;49.316;8.558;2023-07-29T08:59:35;1.23;;;1.13;;
44456;SDS011;30159;49.316;8.558;2023-07-29T09:02:02;1.07;;;1.00;;
44456;SDS011;30159;49.316;8.558;2023-07-29T09:04:28;2.80;;;1.23;;
44456;SDS011;30159;49.316;8.558;2023-07-29T09:06:56;1.37;;;1.27;;
44456;SDS011;30159;49.316;8.558;2023-07-29T09:09:25;2.50;;;1.10;;
44456;SDS011;30159;49.316;8.558;2023-07-29T09:11:51;1.40;;;1.30;;
44456;SDS011;30159;49.316;8.558;2023-07-29T09:14:18;1.87;;;1.20;;
44456;SDS011;30159;49.316;8.558;2023-07-29T09:16:45;1.40;;;1.30;;
44456;SDS011;30159;49.316;8.558;2023-07-29T09:19:12;1.33;;;1.23;;
44456;SDS011;30159;49.316;8.558;2023-07-29T09:21:39;2.10;;;1.37;;
44456;SDS011;30159;49.316;8.558;2023-07-29T09:24:07;1.27;;;1.17;;
44456;SDS011;30159;49.316;8.558;2023-07-29T09:26:35;2.60;;;1.10;;
44456;SDS011;30159;49.316;8.558;2023-07-29T09:29:02;1.30;;;1.20;;
44456;SDS011;30159;49.316;8.558;2023-07-29T09:31:28;1.40;;;1.30;;
44456;SDS011;30159;49.316;8.558;2023-07-29T09:33:56;1.30;;;1.20;;
44456;SDS011;30159;49.316;8.558;2023-07-29T09:36:24;1.40;;;1.30;;
44456;SDS011;30159;49.316;8.558;2023-07-29T09:38:52;2.27;;;1.30;;
44456;SDS011;30159;49.316;8.558;2023-07-29T09:41:22;1.40;;;1.30;;
44456;SDS011;30159;49.316;8.558;2023-07-29T09:43:55;1.43;;;1.33;;
44456;SDS011;30159;49.316;8.558;2023-07-29T09:46:23;2.20;;;1.10;;
44456;SDS011;30159;49.316;8.558;2023-07-29T09:48:52;1.50;;;1.40;;
44456;SDS011;30159;49.316;8.558;2023-07-29T09:51:19;1.53;;;0.90;;
44456;SDS011;30159;49.316;8.558;2023-07-29T09:53:46;1.40;;;1.10;;
44456;SDS011;30159;49.316;8.558;2023-07-29T09:56:14;4.03;;;1.10;;
44456;SDS011;30159;49.316;8.558;2023-07-29T09:58:43;1.30;;;1.20;;
44456;SDS011;30159;49.316;8.558;2023-07-29T10:01:10;1.30;;;1.20;;
44456;SDS011;30159;49.316;8.558;2023-07-29T10:03:37;1.30;;;1.20;;
44456;SDS011;30159;49.316;8.558;2023-07-29T10:06:05;1.40;;;1.30;;
44456;SDS011;30159;49.316;8.558;2023-07-29T10:08:33;1.60;;;1.50;;
44456;SDS011;30159;49.316;8.558;2023-07-29T10:11:03;1.93;;;1.20;;
44456;SDS011;30159;49.316;8.558;2023-07-29T10:13:31;1.30;;;1.20;;
44456;SDS011;30159;49.316;8.558;2023-07-29T10:16:00;1.60;;;1.20;;
44456;SDS011;30159;49.316;8.558;2023-07-29T10:18:28;1.73;;;1.20;;
44456;SDS011;30159;49.316;8.558;2023-07-29T10:20:56;1.40;;;1.30;;
44456;SDS011;30159;49.316;8.558;2023-07-29T10:23:25;1.20;;;1.10;;
44456;SDS011;30159;49.316;8.558;2023-07-29T10:25:55;1.27;;;1.17;;
44456;SDS011;30159;49.316;8.558;2023-07-29T10:28:29;1.33;;;1.23;;
44456;SDS011;30159;49.316;8.558;2023-07-29T10:30:56;1.93;;;1.43;;
44456;SDS011;30159;49.316;8.558;2023-07-29T10:33:24;1.30;;;1.20;;
44456;SDS011;30159;49.316;8.558;2023-07-29T10:35:51;1.47;;;1.37;;
44456;SDS011;30159;49.316;8.558;2023-07-29T10:38:19;1.27;;;1.17;;
44456;SDS011;30159;49.316;8.558;2023-07-29T10:40:49;1.30;;;1.20;;
44456;SDS011;30159;49.316;8.558;2023-07-29T10:43:19;1.50;;;1.40;;
44456;SDS011;30159;49.316;8.558;2023-07-29T10:45:50;1.83;;;1.37;;
44456;SDS011;30159;49.316;8.558;2023-07-29T10:51:21;1.50;;;1.40;;
44456;SDS011;30159;49.316;8.558;2023-07-29T10:53:51;1.30;;;1.20;;
44456;SDS011;30159;49.316;8.558;2023-07-29T10:56:24;1.37;;;1.27;;
44456;SDS011;30159;49.316;8.558;2023-07-29T10:58:52;1.40;;;1.30;;
44456;SDS011;30159;49.316;8.558;2023-07-29T11:01:26;1.40;;;1.30;;
44456;SDS011;30159;49.316;8.558;2023-07-29T11:09:54;1.23;;;1.13;;
44456;SDS011;30159;49.316;8.558;2023-07-29T11:12:34;1.30;;;1.20;;
44456;SDS011;30159;49.316;8.558;2023-07-29T11:15:07;1.20;;;1.10;;
44456;SDS011;30159;49.316;8.558;2023-07-29T11:17:39;1.63;;;1.10;;
44456;SDS011;30159;49.316;8.558;2023-07-29T11:20:09;1.30;;;1.20;;
44456;SDS011;30159;49.316;8.558;2023-07-29T11:22:37;1.57;;;1.30;;
44456;SDS011;30159;49.316;8.558;2023-07-29T11:25:04;2.90;;;1.10;;
44456;SDS011;30159;49.316;8.558;2023-07-29T11:27:33;1.30;;;1.20;;
44456;SDS011;30159;49.316;8.558;2023-07-29T11:30:00;2.10;;;1.00;;
44456;SDS011;30159;49.316;8.558;2023-07-29T11:32:28;1.03;;;1.00;;
44456;SDS011;30159;49.316;8.558;2023-07-29T11:34:54;1.63;;;1.20;;
44456;SDS011;30159;49.316;8.558;2023-07-29T11:37:22;1.30;;;1.10;;
44456;SDS011;30159;49.316;8.558;2023-07-29T11:39:49;0.93;;;0.90;;
44456;SDS011;30159;49.316;8.558;2023-07-29T11:42:16;1.20;;;1.10;;
44456;SDS011;30159;49.316;8.558;2023-07-29T11:44:43;0.87;;;0.87;;
44456;SDS011;30159;49.316;8.558;2023-07-29T11:47:10;1.30;;;1.20;;
44456;SDS011;30159;49.316;8.558;2023-07-29T11:49:38;1.20;;;1.10;;
44456;SDS011;30159;49.316;8.558;2023-07-29T11:52:06;1.23;;;1.13;;
44456;SDS011;30159;49.316;8.558;2023-07-29T11:54:35;1.37;;;1.27;;
44456;SDS011;30159;49.316;8.558;2023-07-29T11:57:03;1.27;;;1.17;;
44456;SDS011;30159;49.316;8.558;2023-07-29T11:59:30;1.27;;;1.17;;
44456;SDS011;30159;49.316;8.558;2023-07-29T12:01:59;1.70;;;1.10;;
44456;SDS011;30159;49.316;8.558;2023-07-29T12:04:26;1.30;;;1.20;;
44456;SDS011;30159;49.316;8.558;2023-07-29T12:06:53;1.33;;;1.10;;
44456;SDS011;30159;49.316;8.558;2023-07-29T12:09:20;1.20;;;1.10;;
44456;SDS011;30159;49.316;8.558;2023-07-29T12:11:48;1.00;;;0.97;;
44456;SDS011;30159;49.316;8.558;2023-07-29T12:14:16;1.20;;;1.10;;
44456;SDS011;30159;49.316;8.558;2023-07-29T12:16:42;1.00;;;0.90;;
44456;SDS011;30159;49.316;8.558;2023-07-29T12:19:11;1.20;;;1.10;;
44456;SDS011;30159;49.316;8.558;2023-07-29T12:21:38;1.17;;;0.90;;
44456;SDS011;30159;49.316;8.558;2023-07-29T12:24:05;1.30;;;1.20;;
44456;SDS011;30159;49.316;8.558;2023-07-29T12:26:31;1.17;;;1.07;;
44456;SDS011;30159;49.316;8.558;2023-07-29T12:28:59;1.07;;;0.97;;
44456;SDS011;30159;49.316;8.558;2023-07-29T12:31:37;1.10;;;1.00;;
44456;SDS011;30159;49.316;8.558;2023-07-29T12:34:04;0.93;;;0.90;;
44456;SDS011;30159;49.316;8.558;2023-07-29T12:36:40;2.30;;;1.10;;
44456;SDS011;30159;49.316;8.558;2023-07-29T12:39:15;1.30;;;1.20;;
44456;SDS011;30159;49.316;8.558;2023-07-29T12:41:42;1.13;;;1.03;;
44456;SDS011;30159;49.316;8.558;2023-07-29T12:44:10;1.20;;;1.10;;
44456;SDS011;30159;49.316;8.558;2023-07-29T12:46:37;1.30;;;1.20;;
44456;SDS011;30159;49.316;8.558;2023-07-29T12:49:03;1.53;;;1.10;;
44456;SDS011;30159;49.316;8.558;2023-07-29T12:51:30;1.10;;;1.00;;
44456;SDS011;30159;49.316;8.558;2023-07-29T12:53:57;1.10;;;1.00;;
44456;SDS011;30159;49.316;8.558;2023-07-29T12:56:23;2.00;;;1.10;;
44456;SDS011;30159;49.316;8.558;2023-07-29T12:58:50;2.80;;;1.20;;
44456;SDS011;30159;49.316;8.558;2023-07-29T13:01:18;1.30;;;1.20;;
44456;SDS011;30159;49.316;8.558;2023-07-29T13:03:45;1.30;;;1.20;;
44456;SDS011;30159;49.316;8.558;2023-07-29T13:06:11;1.40;;;1.30;;
44456;SDS011;30159;49.316;8.558;2023-07-29T13:08:38;1.13;;;1.03;;
44456;SDS011;30159;49.316;8.558;2023-07-29T13:11:04;1.20;;;1.10;;
44456;SDS011;30159;49.316;8.558;2023-07-29T13:13:31;1.00;;;0.90;;
44456;SDS011;30159;49.316;8.558;2023-07-29T13:15:58;2.90;;;1.17;;
44456;SDS011;30159;49.316;8.558;2023-07-29T13:18:26;1.33;;;1.23;;
44456;SDS011;30159;49.316;8.558;2023-07-29T13:20:53;1.30;;;1.20;;
44456;SDS011;30159;49.316;8.558;2023-07-29T13:23:20;1.93;;;1.30;;
44456;SDS011;30159;49.316;8.558;2023-07-29T13:25:47;1.17;;;1.07;;
44456;SDS011;30159;49.316;8.558;2023-07-29T13:28:13;1.50;;;1.20;;
44456;SDS011;30159;49.316;8.558;2023-07-29T13:30:40;1.40;;;1.07;;
44456;SDS011;30159;49.316;8.558;2023-07-29T13:33:07;1.10;;;1.00;;
44456;SDS011;30159;49.316;8.558;2023-07-29T13:35:35;1.20;;;1.10;;
44456;SDS011;30159;49.316;8.558;2023-07-29T13:38:02;1.30;;;1.20;;
44456;SDS011;30159;49.316;8.558;2023-07-29T13:40:29;1.10;;;1.00;;
44456;SDS011;30159;49.316;8.558;2023-07-29T13:42:56;1.00;;;0.90;;
44456;SDS011;30159;49.316;8.558;2023-07-29T13:45:22;1.10;;;1.00;;
44456;SDS011;30159;49.316;8.558;2023-07-29T13:47:49;1.00;;;0.90;;
44456;SDS011;30159;49.316;8.558;2023-07-29T13:50:16;1.00;;;0.90;;
44456;SDS011;30159;49.316;8.558;2023-07-29T13:52:44;1.43;;;1.33;;
44456;SDS011;30159;49.316;8.558;2023-07-29T13:55:11;1.00;;;0.90;;
44456;SDS011;30159;49.316;8.558;2023-07-29T13:57:38;1.23;;;1.13;;
44456;SDS011;30159;49.316;8.558;2023-07-29T14:00:05;1.30;;;1.20;;
44456;SDS011;30159;49.316;8.558;2023-07-29T14:02:33;0.90;;;0.90;;
44456;SDS011;30159;49.316;8.558;2023-07-29T14:05:00;1.10;;;1.00;;
44456;SDS011;30159;49.316;8.558;2023-07-29T14:07:26;1.10;;;1.00;;
44456;SDS011;30159;49.316;8.558;2023-07-29T14:09:54;1.20;;;1.10;;
44456;SDS011;30159;49.316;8.558;2023-07-29T14:12:21;2.33;;;1.20;;
44456;SDS011;30159;49.316;8.558;2023-07-29T14:14:47;0.97;;;0.90;;
44456;SDS011;30159;49.316;8.558;2023-07-29T14:17:14;1.10;;;1.00;;
44456;SDS011;30159;49.316;8.558;2023-07-29T14:19:40;1.37;;;1.27;;
44456;SDS011;30159;49.316;8.558;2023-07-29T14:22:07;1.10;;;1.00;;
44456;SDS011;30159;49.316;8.558;2023-07-29T14:24:33;1.30;;;1.20;;
44456;SDS011;30159;49.316;8.558;2023-07-29T14:27:02;1.57;;;1.00;;
44456;SDS011;30159;49.316;8.558;2023-07-29T14:29:29;1.10;;;1.00;;
44456;SDS011;30159;49.316;8.558;2023-07-29T14:31:55;1.47;;;1.20;;
44456;SDS011;30159;49.316;8.558;2023-07-29T14:34:22;1.30;;;1.20;;
44456;SDS011;30159;49.316;8.558;2023-07-29T14:36:49;5.90;;;1.30;;
44456;SDS011;30159;49.316;8.558;2023-07-29T14:39:15;1.10;;;1.00;;
44456;SDS011;30159;49.316;8.558;2023-07-29T14:41:42;2.13;;;1.10;;
44456;SDS011;30159;49.316;8.558;2023-07-29T14:44:10;1.20;;;1.10;;
44456;SDS011;30159;49.316;8.558;2023-07-29T14:46:36;1.20;;;1.10;;
44456;SDS011;30159;49.316;8.558;2023-07-29T14:49:03;1.20;;;1.10;;
44456;SDS011;30159;49.316;8.558;2023-07-29T14:51:29;5.10;;;1.27;;
44456;SDS011;30159;49.316;8.558;2023-07-29T14:53:56;1.20;;;1.10;;
44456;SDS011;30159;49.316;8.558;2023-07-29T14:56:23;1.73;;;1.10;;
44456;SDS011;30159;49.316;8.558;2023-07-29T14:58:49;1.23;;;1.13;;